createdAt,value
2019-04-14T00:00:42.722Z,0.00
2019-04-14T00:15:47.079Z,0.00
2019-04-14T00:30:49.115Z,0.00
2019-04-14T00:45:53.513Z,0.00
2019-04-14T01:00:55.878Z,0.00
2019-04-14T01:16:03.449Z,0.00
2019-04-14T01:31:01.241Z,0.00
2019-04-14T01:46:10.541Z,0.00
2019-04-14T02:01:06.707Z,0.00
2019-04-14T02:16:18.803Z,0.00
2019-04-14T02:31:29.845Z,0.00
2019-04-14T02:47:26.838Z,0.00
2019-04-14T03:02:27.510Z,0.00
2019-04-14T03:17:29.156Z,0.00
2019-04-14T03:32:53.173Z,0.00
2019-04-14T03:47:31.015Z,0.00
2019-04-14T04:02:18.273Z,0.00
2019-04-14T04:17:21.189Z,0.00
2019-04-14T04:32:22.923Z,5.62
2019-04-14T04:47:23.168Z,16.88
2019-04-14T05:02:24.465Z,28.12
2019-04-14T05:17:25.543Z,50.62
2019-04-14T05:32:26.207Z,56.25
2019-04-14T05:47:26.262Z,67.50
2019-04-14T06:02:28.895Z,78.75
2019-04-14T06:17:30.218Z,174.38
2019-04-14T06:32:30.299Z,106.88
2019-04-14T06:47:30.482Z,151.88
2019-04-14T07:02:30.725Z,112.50
2019-04-14T07:17:30.831Z,151.88
2019-04-14T07:32:31.936Z,140.62
2019-04-14T07:47:32.155Z,208.12
2019-04-14T08:02:32.379Z,202.50
2019-04-14T08:17:32.605Z,191.25
2019-04-14T08:32:33.311Z,202.50
2019-04-14T08:47:33.529Z,185.62
2019-04-14T09:02:33.755Z,157.50
2019-04-14T09:17:33.928Z,219.38
2019-04-14T09:32:34.037Z,196.88
2019-04-14T09:47:34.150Z,213.75
2019-04-14T10:02:34.762Z,196.88
2019-04-14T10:17:35.477Z,225.00
2019-04-14T10:32:35.677Z,174.38
2019-04-14T10:47:35.826Z,258.75
2019-04-14T11:02:35.992Z,264.38
2019-04-14T11:17:36.216Z,281.25
2019-04-14T11:32:37.320Z,376.88
2019-04-14T11:47:38.110Z,388.12
2019-04-14T12:02:38.249Z,511.88
2019-04-14T12:17:38.907Z,511.88
2019-04-14T12:32:39.033Z,495.00
2019-04-14T12:47:40.352Z,759.38
2019-04-14T13:02:40.447Z,770.62
2019-04-14T13:17:41.393Z,945.00
2019-04-14T13:32:41.624Z,759.38
2019-04-14T13:47:42.318Z,551.25
2019-04-14T14:02:42.520Z,590.62
2019-04-14T14:17:42.754Z,1006.88
2019-04-14T14:32:46.142Z,348.75
2019-04-14T14:47:46.267Z,264.38
2019-04-14T15:02:46.340Z,241.88
2019-04-14T15:17:46.568Z,157.50
2019-04-14T15:32:49.861Z,129.38
2019-04-14T15:47:53.909Z,140.62
2019-04-14T16:02:53.923Z,106.88
2019-04-14T16:17:54.498Z,129.38
2019-04-14T16:32:54.582Z,73.12
2019-04-14T16:47:55.162Z,61.88
2019-04-14T17:02:55.741Z,45.00
2019-04-14T17:17:56.501Z,45.00
2019-04-14T17:32:56.927Z,33.75
2019-04-14T17:47:57.026Z,11.25
2019-04-14T18:02:57.096Z,0.00
2019-04-14T18:17:58.697Z,0.00
2019-04-14T18:32:59.278Z,0.00
2019-04-14T18:47:59.363Z,0.00
2019-04-14T19:02:59.434Z,0.00
2019-04-14T19:18:08.716Z,0.00
2019-04-14T19:33:12.014Z,0.00
2019-04-14T19:48:12.289Z,0.00
2019-04-14T20:03:12.340Z,0.00
2019-04-14T20:18:12.571Z,0.00
2019-04-14T20:33:13.254Z,0.00
2019-04-14T20:48:13.382Z,0.00
2019-04-14T21:03:13.559Z,0.00
2019-04-14T21:18:14.248Z,0.00
2019-04-14T21:33:14.380Z,0.00
2019-04-14T21:48:14.575Z,0.00
2019-04-14T22:03:14.767Z,0.00
2019-04-14T22:18:15.090Z,0.00
2019-04-14T22:33:15.207Z,0.00
2019-04-14T22:48:15.405Z,0.00
2019-04-14T23:03:15.617Z,0.00
2019-04-14T23:18:16.320Z,0.00
2019-04-14T23:33:16.490Z,0.00
2019-04-14T23:48:16.708Z,0.00
